sensor_id;sensor_type;location;lat;lon;timestamp;temperature;humidity
23291;DHT22;11814;44.686;10.842;2024-01-16T00:01:57;2.90;99.90
23291;DHT22;11814;44.686;10.842;2024-01-16T00:04:23;2.80;99.90
23291;DHT22;11814;44.686;10.842;2024-01-16T00:06:52;2.80;99.90
23291;DHT22;11814;44.686;10.842;2024-01-16T00:09:20;2.80;99.90
23291;DHT22;11814;44.686;10.842;2024-01-16T00:11:46;2.70;99.90
23291;DHT22;11814;44.686;10.842;2024-01-16T00:14:12;2.70;99.90
23291;DHT22;11814;44.686;10.842;2024-01-16T00:16:46;2.60;99.90
23291;DHT22;11814;44.686;10.842;2024-01-16T00:19:13;2.60;99.90
23291;DHT22;11814;44.686;10.842;2024-01-16T00:21:44;2.60;99.90
23291;DHT22;11814;44.686;10.842;2024-01-16T00:24:16;2.50;99.90
23291;DHT22;11814;44.686;10.842;2024-01-16T00:26:42;2.50;99.90
23291;DHT22;11814;44.686;10.842;2024-01-16T00:29:08;2.50;99.90
23291;DHT22;11814;44.686;10.842;2024-01-16T00:31:40;2.40;99.90
23291;DHT22;11814;44.686;10.842;2024-01-16T00:34:06;2.40;99.90
23291;DHT22;11814;44.686;10.842;2024-01-16T00:36:33;2.40;99.90
23291;DHT22;11814;44.686;10.842;2024-01-16T00:38:58;2.30;99.90
23291;DHT22;11814;44.686;10.842;2024-01-16T00:41:24;2.30;99.90
23291;DHT22;11814;44.686;10.842;2024-01-16T00:43:49;2.30;99.90
23291;DHT22;11814;44.686;10.842;2024-01-16T00:46:18;2.30;99.90
23291;DHT22;11814;44.686;10.842;2024-01-16T00:48:43;2.40;99.90
23291;DHT22;11814;44.686;10.842;2024-01-16T00:51:09;2.20;99.90
23291;DHT22;11814;44.686;10.842;2024-01-16T00:53:42;2.20;99.90
23291;DHT22;11814;44.686;10.842;2024-01-16T00:56:08;2.20;99.90
23291;DHT22;11814;44.686;10.842;2024-01-16T00:58:34;2.10;99.90
23291;DHT22;11814;44.686;10.842;2024-01-16T01:00:59;2.10;99.90
23291;DHT22;11814;44.686;10.842;2024-01-16T01:03:25;2.10;99.90
23291;DHT22;11814;44.686;10.842;2024-01-16T01:05:51;2.10;99.90
23291;DHT22;11814;44.686;10.842;2024-01-16T01:08:17;2.10;99.90
23291;DHT22;11814;44.686;10.842;2024-01-16T01:10:43;2.10;99.90
23291;DHT22;11814;44.686;10.842;2024-01-16T01:13:08;2.10;99.90
23291;DHT22;11814;44.686;10.842;2024-01-16T01:15:34;2.10;99.90
23291;DHT22;11814;44.686;10.842;2024-01-16T01:18:00;2.20;99.90
23291;DHT22;11814;44.686;10.842;2024-01-16T01:20:25;2.10;99.90
23291;DHT22;11814;44.686;10.842;2024-01-16T01:22:51;2.00;99.90
23291;DHT22;11814;44.686;10.842;2024-01-16T01:25:17;1.90;99.90
23291;DHT22;11814;44.686;10.842;2024-01-16T01:27:42;1.90;99.90
23291;DHT22;11814;44.686;10.842;2024-01-16T01:30:08;1.90;99.90
23291;DHT22;11814;44.686;10.842;2024-01-16T01:32:37;1.80;99.90
23291;DHT22;11814;44.686;10.842;2024-01-16T01:35:04;1.80;99.90
23291;DHT22;11814;44.686;10.842;2024-01-16T01:37:30;1.70;99.90
23291;DHT22;11814;44.686;10.842;2024-01-16T01:39:55;1.70;99.90
23291;DHT22;11814;44.686;10.842;2024-01-16T01:42:21;1.70;99.90
23291;DHT22;11814;44.686;10.842;2024-01-16T01:44:47;1.70;99.90
23291;DHT22;11814;44.686;10.842;2024-01-16T01:47:13;1.70;99.90
23291;DHT22;11814;44.686;10.842;2024-01-16T01:49:42;1.80;99.90
23291;DHT22;11814;44.686;10.842;2024-01-16T01:52:11;1.80;99.90
23291;DHT22;11814;44.686;10.842;2024-01-16T01:54:38;1.70;99.90
23291;DHT22;11814;44.686;10.842;2024-01-16T01:57:08;1.90;99.90
23291;DHT22;11814;44.686;10.842;2024-01-16T01:59:33;1.90;99.90
23291;DHT22;11814;44.686;10.842;2024-01-16T02:02:02;2.00;99.90
23291;DHT22;11814;44.686;10.842;2024-01-16T02:04:29;1.80;99.90
23291;DHT22;11814;44.686;10.842;2024-01-16T02:06:56;2.00;99.90
23291;DHT22;11814;44.686;10.842;2024-01-16T02:09:23;2.00;99.90
23291;DHT22;11814;44.686;10.842;2024-01-16T02:11:48;1.90;99.90
23291;DHT22;11814;44.686;10.842;2024-01-16T02:14:14;1.90;99.90
23291;DHT22;11814;44.686;10.842;2024-01-16T02:16:41;1.90;99.90
23291;DHT22;11814;44.686;10.842;2024-01-16T02:19:08;2.00;99.90
23291;DHT22;11814;44.686;10.842;2024-01-16T02:21:46;2.00;99.90
23291;DHT22;11814;44.686;10.842;2024-01-16T02:24:13;2.00;99.90
23291;DHT22;11814;44.686;10.842;2024-01-16T02:26:39;1.90;99.90
23291;DHT22;11814;44.686;10.842;2024-01-16T02:29:05;1.90;99.90
23291;DHT22;11814;44.686;10.842;2024-01-16T02:31:31;1.90;99.90
23291;DHT22;11814;44.686;10.842;2024-01-16T02:33:57;1.90;99.90
23291;DHT22;11814;44.686;10.842;2024-01-16T02:36:24;1.90;99.90
23291;DHT22;11814;44.686;10.842;2024-01-16T02:38:49;1.90;99.90
23291;DHT22;11814;44.686;10.842;2024-01-16T02:41:15;1.80;99.90
23291;DHT22;11814;44.686;10.842;2024-01-16T02:43:42;1.80;99.90
23291;DHT22;11814;44.686;10.842;2024-01-16T02:46:10;1.80;99.90
23291;DHT22;11814;44.686;10.842;2024-01-16T02:48:37;1.80;99.90
23291;DHT22;11814;44.686;10.842;2024-01-16T02:51:03;1.70;99.90
23291;DHT22;11814;44.686;10.842;2024-01-16T02:53:31;1.70;99.90
23291;DHT22;11814;44.686;10.842;2024-01-16T02:55:57;1.70;99.90
23291;DHT22;11814;44.686;10.842;2024-01-16T02:58:29;1.70;99.90
23291;DHT22;11814;44.686;10.842;2024-01-16T03:00:56;1.70;99.90
23291;DHT22;11814;44.686;10.842;2024-01-16T03:03:22;1.70;99.90
23291;DHT22;11814;44.686;10.842;2024-01-16T03:05:48;1.70;99.90
23291;DHT22;11814;44.686;10.842;2024-01-16T03:08:14;1.70;99.90
23291;DHT22;11814;44.686;10.842;2024-01-16T03:10:40;1.80;99.90
23291;DHT22;11814;44.686;10.842;2024-01-16T03:13:07;1.80;99.90
23291;DHT22;11814;44.686;10.842;2024-01-16T03:15:33;1.80;99.90
23291;DHT22;11814;44.686;10.842;2024-01-16T03:17:59;1.80;99.90
23291;DHT22;11814;44.686;10.842;2024-01-16T03:20:28;1.80;99.90
23291;DHT22;11814;44.686;10.842;2024-01-16T03:22:54;1.80;99.90
23291;DHT22;11814;44.686;10.842;2024-01-16T03:25:20;1.80;99.90
23291;DHT22;11814;44.686;10.842;2024-01-16T03:27:46;1.80;99.90
23291;DHT22;11814;44.686;10.842;2024-01-16T03:30:12;1.80;99.90
23291;DHT22;11814;44.686;10.842;2024-01-16T03:32:38;1.80;99.90
23291;DHT22;11814;44.686;10.842;2024-01-16T03:35:05;1.80;99.90
23291;DHT22;11814;44.686;10.842;2024-01-16T03:37:31;1.70;99.90
23291;DHT22;11814;44.686;10.842;2024-01-16T03:39:56;1.70;99.90
23291;DHT22;11814;44.686;10.842;2024-01-16T03:42:22;1.70;99.90
23291;DHT22;11814;44.686;10.842;2024-01-16T03:44:48;1.60;99.90
23291;DHT22;11814;44.686;10.842;2024-01-16T03:47:15;1.50;99.90
23291;DHT22;11814;44.686;10.842;2024-01-16T03:49:40;1.50;99.90
23291;DHT22;11814;44.686;10.842;2024-01-16T03:52:06;1.50;99.90
23291;DHT22;11814;44.686;10.842;2024-01-16T03:54:32;1.50;99.90
23291;DHT22;11814;44.686;10.842;2024-01-16T03:56:57;1.50;99.90
23291;DHT22;11814;44.686;10.842;2024-01-16T03:59:23;1.50;99.90
23291;DHT22;11814;44.686;10.842;2024-01-16T04:01:49;1.60;99.90
23291;DHT22;11814;44.686;10.842;2024-01-16T04:04:15;1.60;99.90
23291;DHT22;11814;44.686;10.842;2024-01-16T04:06:41;1.60;99.90
23291;DHT22;11814;44.686;10.842;2024-01-16T04:09:08;1.60;99.90
23291;DHT22;11814;44.686;10.842;2024-01-16T04:11:34;1.60;99.90
23291;DHT22;11814;44.686;10.842;2024-01-16T04:14:00;1.60;99.90
23291;DHT22;11814;44.686;10.842;2024-01-16T04:16:25;1.70;99.90
23291;DHT22;11814;44.686;10.842;2024-01-16T04:18:52;1.60;99.90
23291;DHT22;11814;44.686;10.842;2024-01-16T04:21:17;1.60;99.90
23291;DHT22;11814;44.686;10.842;2024-01-16T04:23:43;1.60;99.90
23291;DHT22;11814;44.686;10.842;2024-01-16T04:26:09;1.70;99.90
23291;DHT22;11814;44.686;10.842;2024-01-16T04:28:34;1.70;99.90
23291;DHT22;11814;44.686;10.842;2024-01-16T04:31:03;1.60;99.90
23291;DHT22;11814;44.686;10.842;2024-01-16T04:33:28;1.70;99.90
23291;DHT22;11814;44.686;10.842;2024-01-16T04:35:55;1.60;99.90
23291;DHT22;11814;44.686;10.842;2024-01-16T04:38:21;1.60;99.90
23291;DHT22;11814;44.686;10.842;2024-01-16T04:40:47;1.60;99.90
23291;DHT22;11814;44.686;10.842;2024-01-16T04:43:12;1.60;99.90
23291;DHT22;11814;44.686;10.842;2024-01-16T04:45:38;1.60;99.90
23291;DHT22;11814;44.686;10.842;2024-01-16T04:48:04;1.60;99.90
23291;DHT22;11814;44.686;10.842;2024-01-16T04:50:30;1.60;99.90
23291;DHT22;11814;44.686;10.842;2024-01-16T04:52:59;1.60;99.90
23291;DHT22;11814;44.686;10.842;2024-01-16T04:55:28;1.60;99.90
23291;DHT22;11814;44.686;10.842;2024-01-16T04:57:57;1.60;99.90
23291;DHT22;11814;44.686;10.842;2024-01-16T05:00:23;1.60;99.90
23291;DHT22;11814;44.686;10.842;2024-01-16T05:02:49;1.60;99.90
23291;DHT22;11814;44.686;10.842;2024-01-16T05:05:15;1.50;99.90
23291;DHT22;11814;44.686;10.842;2024-01-16T05:07:41;1.50;99.90
23291;DHT22;11814;44.686;10.842;2024-01-16T05:10:10;1.50;99.90
23291;DHT22;11814;44.686;10.842;2024-01-16T05:12:40;1.40;99.90
23291;DHT22;11814;44.686;10.842;2024-01-16T05:15:06;1.40;99.90
23291;DHT22;11814;44.686;10.842;2024-01-16T05:17:33;1.40;99.90
23291;DHT22;11814;44.686;10.842;2024-01-16T05:19:59;1.30;99.90
23291;DHT22;11814;44.686;10.842;2024-01-16T05:22:25;1.30;99.90
23291;DHT22;11814;44.686;10.842;2024-01-16T05:24:51;1.30;99.90
23291;DHT22;11814;44.686;10.842;2024-01-16T05:27:16;1.30;99.90
23291;DHT22;11814;44.686;10.842;2024-01-16T05:29:42;1.30;99.90
23291;DHT22;11814;44.686;10.842;2024-01-16T05:32:08;1.30;99.90
23291;DHT22;11814;44.686;10.842;2024-01-16T05:34:33;1.30;99.90
23291;DHT22;11814;44.686;10.842;2024-01-16T05:36:59;1.40;99.90
23291;DHT22;11814;44.686;10.842;2024-01-16T05:39:24;1.40;99.90
23291;DHT22;11814;44.686;10.842;2024-01-16T05:41:50;1.40;99.90
23291;DHT22;11814;44.686;10.842;2024-01-16T05:44:15;1.40;99.90
23291;DHT22;11814;44.686;10.842;2024-01-16T05:46:41;1.40;99.90
23291;DHT22;11814;44.686;10.842;2024-01-16T05:49:07;1.40;99.90
23291;DHT22;11814;44.686;10.842;2024-01-16T05:51:33;1.40;99.90
23291;DHT22;11814;44.686;10.842;2024-01-16T05:53:58;1.40;99.90
23291;DHT22;11814;44.686;10.842;2024-01-16T05:56:24;1.40;99.90
23291;DHT22;11814;44.686;10.842;2024-01-16T05:58:49;1.50;99.90
23291;DHT22;11814;44.686;10.842;2024-01-16T06:01:15;1.50;99.90
23291;DHT22;11814;44.686;10.842;2024-01-16T06:03:43;1.40;99.90
23291;DHT22;11814;44.686;10.842;2024-01-16T06:06:11;1.50;99.90
23291;DHT22;11814;44.686;10.842;2024-01-16T06:08:37;1.40;99.90
23291;DHT22;11814;44.686;10.842;2024-01-16T06:11:02;1.40;99.90
23291;DHT22;11814;44.686;10.842;2024-01-16T06:13:28;1.40;99.90
23291;DHT22;11814;44.686;10.842;2024-01-16T06:15:55;1.50;99.90
23291;DHT22;11814;44.686;10.842;2024-01-16T06:18:21;1.40;99.90
23291;DHT22;11814;44.686;10.842;2024-01-16T06:20:47;1.40;99.90
23291;DHT22;11814;44.686;10.842;2024-01-16T06:23:12;1.40;99.90
23291;DHT22;11814;44.686;10.842;2024-01-16T06:25:38;1.30;99.90
23291;DHT22;11814;44.686;10.842;2024-01-16T06:28:04;1.30;99.90
23291;DHT22;11814;44.686;10.842;2024-01-16T06:30:30;1.30;99.90
23291;DHT22;11814;44.686;10.842;2024-01-16T06:32:56;1.40;99.90
23291;DHT22;11814;44.686;10.842;2024-01-16T06:35:22;1.40;99.90
23291;DHT22;11814;44.686;10.842;2024-01-16T06:37:49;1.40;99.90
23291;DHT22;11814;44.686;10.842;2024-01-16T06:40:14;1.40;99.90
23291;DHT22;11814;44.686;10.842;2024-01-16T06:42:40;1.50;99.90
23291;DHT22;11814;44.686;10.842;2024-01-16T06:45:06;1.40;99.90
23291;DHT22;11814;44.686;10.842;2024-01-16T06:47:32;1.40;99.90
23291;DHT22;11814;44.686;10.842;2024-01-16T06:49:58;1.30;99.90
23291;DHT22;11814;44.686;10.842;2024-01-16T06:52:23;1.30;99.90
23291;DHT22;11814;44.686;10.842;2024-01-16T06:54:50;1.30;99.90
23291;DHT22;11814;44.686;10.842;2024-01-16T06:57:16;1.40;99.90
23291;DHT22;11814;44.686;10.842;2024-01-16T06:59:47;1.30;99.90
23291;DHT22;11814;44.686;10.842;2024-01-16T07:02:13;1.40;99.90
23291;DHT22;11814;44.686;10.842;2024-01-16T07:04:39;1.40;99.90
23291;DHT22;11814;44.686;10.842;2024-01-16T07:07:04;1.50;99.90
23291;DHT22;11814;44.686;10.842;2024-01-16T07:09:30;1.50;99.90
23291;DHT22;11814;44.686;10.842;2024-01-16T07:11:55;1.50;99.90
23291;DHT22;11814;44.686;10.842;2024-01-16T07:14:21;1.60;99.90
23291;DHT22;11814;44.686;10.842;2024-01-16T07:16:49;1.60;99.90
23291;DHT22;11814;44.686;10.842;2024-01-16T07:25:02;1.90;99.90
23291;DHT22;11814;44.686;10.842;2024-01-16T07:27:31;1.90;99.90
23291;DHT22;11814;44.686;10.842;2024-01-16T07:29:56;1.90;99.90
23291;DHT22;11814;44.686;10.842;2024-01-16T07:32:22;2.00;99.90
23291;DHT22;11814;44.686;10.842;2024-01-16T07:34:48;2.00;99.90
23291;DHT22;11814;44.686;10.842;2024-01-16T07:37:13;2.10;99.90
23291;DHT22;11814;44.686;10.842;2024-01-16T07:39:41;2.30;99.90
23291;DHT22;11814;44.686;10.842;2024-01-16T07:42:06;2.50;99.90
23291;DHT22;11814;44.686;10.842;2024-01-16T07:44:33;2.70;99.90
23291;DHT22;11814;44.686;10.842;2024-01-16T07:46:59;3.00;99.90
23291;DHT22;11814;44.686;10.842;2024-01-16T07:49:27;3.20;99.90
23291;DHT22;11814;44.686;10.842;2024-01-16T07:51:53;3.50;99.90
23291;DHT22;11814;44.686;10.842;2024-01-16T07:54:19;3.80;99.90
23291;DHT22;11814;44.686;10.842;2024-01-16T07:56:44;3.90;99.90
23291;DHT22;11814;44.686;10.842;2024-01-16T07:59:16;4.10;99.90
23291;DHT22;11814;44.686;10.842;2024-01-16T08:01:43;4.50;99.90
23291;DHT22;11814;44.686;10.842;2024-01-16T08:04:08;4.90;99.90
23291;DHT22;11814;44.686;10.842;2024-01-16T08:06:34;5.20;99.90
23291;DHT22;11814;44.686;10.842;2024-01-16T08:09:00;5.70;99.90
23291;DHT22;11814;44.686;10.842;2024-01-16T08:11:25;6.20;99.90
23291;DHT22;11814;44.686;10.842;2024-01-16T08:13:51;6.70;99.90
23291;DHT22;11814;44.686;10.842;2024-01-16T08:16:17;7.20;99.90
23291;DHT22;11814;44.686;10.842;2024-01-16T08:18:43;7.80;99.90
23291;DHT22;11814;44.686;10.842;2024-01-16T08:21:08;8.40;99.90
23291;DHT22;11814;44.686;10.842;2024-01-16T08:23:34;8.90;99.90
23291;DHT22;11814;44.686;10.842;2024-01-16T08:26:00;9.50;99.90
23291;DHT22;11814;44.686;10.842;2024-01-16T08:28:26;9.90;98.90
23291;DHT22;11814;44.686;10.842;2024-01-16T08:30:52;10.10;96.80
23291;DHT22;11814;44.686;10.842;2024-01-16T08:33:18;10.30;94.50
23291;DHT22;11814;44.686;10.842;2024-01-16T08:35:44;10.30;93.20
23291;DHT22;11814;44.686;10.842;2024-01-16T08:38:10;10.50;92.40
23291;DHT22;11814;44.686;10.842;2024-01-16T08:40:35;10.80;91.90
23291;DHT22;11814;44.686;10.842;2024-01-16T08:43:01;10.80;90.70
23291;DHT22;11814;44.686;10.842;2024-01-16T08:45:27;10.90;90.10
23291;DHT22;11814;44.686;10.842;2024-01-16T08:47:52;11.30;89.40
23291;DHT22;11814;44.686;10.842;2024-01-16T08:50:18;11.50;89.00
23291;DHT22;11814;44.686;10.842;2024-01-16T08:52:44;11.70;88.70
23291;DHT22;11814;44.686;10.842;2024-01-16T08:55:09;11.80;86.30
23291;DHT22;11814;44.686;10.842;2024-01-16T08:57:37;11.70;84.60
23291;DHT22;11814;44.686;10.842;2024-01-16T09:00:06;11.80;84.00
23291;DHT22;11814;44.686;10.842;2024-01-16T09:02:35;11.90;84.20
23291;DHT22;11814;44.686;10.842;2024-01-16T09:05:00;12.00;83.60
23291;DHT22;11814;44.686;10.842;2024-01-16T09:07:27;12.10;82.10
23291;DHT22;11814;44.686;10.842;2024-01-16T09:09:53;11.80;81.90
23291;DHT22;11814;44.686;10.842;2024-01-16T09:12:19;11.60;81.90
23291;DHT22;11814;44.686;10.842;2024-01-16T09:14:44;11.20;81.50
23291;DHT22;11814;44.686;10.842;2024-01-16T09:17:10;10.90;81.90
23291;DHT22;11814;44.686;10.842;2024-01-16T09:19:36;10.60;82.00
23291;DHT22;11814;44.686;10.842;2024-01-16T09:22:01;10.10;82.50
23291;DHT22;11814;44.686;10.842;2024-01-16T09:24:28;9.80;83.30
23291;DHT22;11814;44.686;10.842;2024-01-16T09:26:54;9.60;84.20
23291;DHT22;11814;44.686;10.842;2024-01-16T09:29:20;9.40;84.80
23291;DHT22;11814;44.686;10.842;2024-01-16T09:31:46;9.10;85.60
23291;DHT22;11814;44.686;10.842;2024-01-16T09:34:13;9.10;86.70
23291;DHT22;11814;44.686;10.842;2024-01-16T09:36:39;8.80;87.40
23291;DHT22;11814;44.686;10.842;2024-01-16T09:39:06;8.90;87.90
23291;DHT22;11814;44.686;10.842;2024-01-16T09:41:39;8.90;88.50
23291;DHT22;11814;44.686;10.842;2024-01-16T09:44:05;8.80;89.00
23291;DHT22;11814;44.686;10.842;2024-01-16T09:46:34;8.90;89.30
23291;DHT22;11814;44.686;10.842;2024-01-16T09:49:02;8.80;89.50
23291;DHT22;11814;44.686;10.842;2024-01-16T09:51:28;8.70;89.90
23291;DHT22;11814;44.686;10.842;2024-01-16T09:53:54;8.80;90.20
23291;DHT22;11814;44.686;10.842;2024-01-16T09:56:24;8.90;90.50
23291;DHT22;11814;44.686;10.842;2024-01-16T09:58:51;9.10;90.70
23291;DHT22;11814;44.686;10.842;2024-01-16T10:01:17;9.30;91.00
23291;DHT22;11814;44.686;10.842;2024-01-16T10:03:45;9.60;90.90
23291;DHT22;11814;44.686;10.842;2024-01-16T10:06:11;9.70;90.90
23291;DHT22;11814;44.686;10.842;2024-01-16T10:08:37;10.40;91.30
23291;DHT22;11814;44.686;10.842;2024-01-16T10:11:03;10.90;91.00
23291;DHT22;11814;44.686;10.842;2024-01-16T10:13:30;11.40;90.90
23291;DHT22;11814;44.686;10.842;2024-01-16T10:15:56;11.80;90.20
23291;DHT22;11814;44.686;10.842;2024-01-16T10:18:23;12.60;89.50
23291;DHT22;11814;44.686;10.842;2024-01-16T10:20:49;13.20;87.20
23291;DHT22;11814;44.686;10.842;2024-01-16T10:23:22;13.60;84.80
23291;DHT22;11814;44.686;10.842;2024-01-16T10:26:05;13.90;81.80
23291;DHT22;11814;44.686;10.842;2024-01-16T10:28:30;14.40;80.20
23291;DHT22;11814;44.686;10.842;2024-01-16T10:31:04;14.50;78.90
23291;DHT22;11814;44.686;10.842;2024-01-16T10:33:30;14.80;77.60
23291;DHT22;11814;44.686;10.842;2024-01-16T10:38:37;14.50;74.90
23291;DHT22;11814;44.686;10.842;2024-01-16T10:41:16;14.90;75.80
23291;DHT22;11814;44.686;10.842;2024-01-16T10:43:43;15.20;75.10
23291;DHT22;11814;44.686;10.842;2024-01-16T10:46:18;15.40;74.60
23291;DHT22;11814;44.686;10.842;2024-01-16T10:48:58;15.90;73.70
23291;DHT22;11814;44.686;10.842;2024-01-16T10:51:26;16.20;71.60
23291;DHT22;11814;44.686;10.842;2024-01-16T10:53:58;16.60;70.60
23291;DHT22;11814;44.686;10.842;2024-01-16T10:56:24;17.10;68.90
23291;DHT22;11814;44.686;10.842;2024-01-16T10:59:18;17.30;67.50
23291;DHT22;11814;44.686;10.842;2024-01-16T11:01:50;17.90;66.20
23291;DHT22;11814;44.686;10.842;2024-01-16T11:04:18;18.40;64.50
23291;DHT22;11814;44.686;10.842;2024-01-16T11:06:44;18.40;62.90
23291;DHT22;11814;44.686;10.842;2024-01-16T11:09:13;18.20;61.20
23291;DHT22;11814;44.686;10.842;2024-01-16T11:11:42;17.80;60.70
23291;DHT22;11814;44.686;10.842;2024-01-16T11:14:09;17.60;59.90
23291;DHT22;11814;44.686;10.842;2024-01-16T11:16:36;17.20;60.40
23291;DHT22;11814;44.686;10.842;2024-01-16T11:19:04;17.20;60.50
23291;DHT22;11814;44.686;10.842;2024-01-16T11:21:33;17.00;60.90
23291;DHT22;11814;44.686;10.842;2024-01-16T11:23:59;16.80;60.70
23291;DHT22;11814;44.686;10.842;2024-01-16T11:28:57;16.80;62.20
23291;DHT22;11814;44.686;10.842;2024-01-16T11:31:31;17.00;62.20
23291;DHT22;11814;44.686;10.842;2024-01-16T11:33:58;17.00;61.00
23291;DHT22;11814;44.686;10.842;2024-01-16T11:36:52;16.90;62.00
23291;DHT22;11814;44.686;10.842;2024-01-16T11:39:23;17.20;61.10
23291;DHT22;11814;44.686;10.842;2024-01-16T11:41:57;17.40;61.00
23291;DHT22;11814;44.686;10.842;2024-01-16T11:47:08;17.20;59.50
23291;DHT22;11814;44.686;10.842;2024-01-16T11:49:37;17.20;60.00
23291;DHT22;11814;44.686;10.842;2024-01-16T11:52:03;17.00;60.30
23291;DHT22;11814;44.686;10.842;2024-01-16T11:54:29;16.70;60.60
23291;DHT22;11814;44.686;10.842;2024-01-16T11:57:01;16.00;60.60
23291;DHT22;11814;44.686;10.842;2024-01-16T12:02:02;14.70;63.80
23291;DHT22;11814;44.686;10.842;2024-01-16T12:04:30;14.20;64.60
23291;DHT22;11814;44.686;10.842;2024-01-16T12:06:59;13.60;66.10
23291;DHT22;11814;44.686;10.842;2024-01-16T12:09:26;13.20;67.40
23291;DHT22;11814;44.686;10.842;2024-01-16T12:12:10;12.90;68.60
23291;DHT22;11814;44.686;10.842;2024-01-16T12:14:37;12.50;69.10
23291;DHT22;11814;44.686;10.842;2024-01-16T12:17:13;12.10;69.70
23291;DHT22;11814;44.686;10.842;2024-01-16T12:19:39;11.80;71.00
23291;DHT22;11814;44.686;10.842;2024-01-16T12:22:13;11.70;71.50
23291;DHT22;11814;44.686;10.842;2024-01-16T12:24:39;11.50;72.30
23291;DHT22;11814;44.686;10.842;2024-01-16T12:27:05;11.50;72.90
23291;DHT22;11814;44.686;10.842;2024-01-16T12:29:31;11.40;73.40
23291;DHT22;11814;44.686;10.842;2024-01-16T12:32:12;11.40;73.90
23291;DHT22;11814;44.686;10.842;2024-01-16T12:34:58;11.50;74.40
23291;DHT22;11814;44.686;10.842;2024-01-16T12:37:24;11.40;74.60
23291;DHT22;11814;44.686;10.842;2024-01-16T12:39:49;11.30;74.50
23291;DHT22;11814;44.686;10.842;2024-01-16T12:42:17;11.20;74.90
23291;DHT22;11814;44.686;10.842;2024-01-16T12:44:43;11.20;76.20
23291;DHT22;11814;44.686;10.842;2024-01-16T12:47:15;11.20;75.60
23291;DHT22;11814;44.686;10.842;2024-01-16T12:49:42;11.20;75.60
23291;DHT22;11814;44.686;10.842;2024-01-16T12:52:20;11.10;75.70
23291;DHT22;11814;44.686;10.842;2024-01-16T12:54:59;11.10;76.00
23291;DHT22;11814;44.686;10.842;2024-01-16T12:57:30;11.10;76.50
23291;DHT22;11814;44.686;10.842;2024-01-16T12:59:55;11.10;76.70
23291;DHT22;11814;44.686;10.842;2024-01-16T13:02:24;11.00;77.20
23291;DHT22;11814;44.686;10.842;2024-01-16T13:05:02;11.10;77.80
23291;DHT22;11814;44.686;10.842;2024-01-16T13:07:30;11.10;77.80
23291;DHT22;11814;44.686;10.842;2024-01-16T13:10:11;11.10;77.90
23291;DHT22;11814;44.686;10.842;2024-01-16T13:12:38;10.90;78.10
23291;DHT22;11814;44.686;10.842;2024-01-16T13:15:04;10.90;78.50
23291;DHT22;11814;44.686;10.842;2024-01-16T13:17:34;10.80;79.20
23291;DHT22;11814;44.686;10.842;2024-01-16T13:20:01;10.90;80.20
23291;DHT22;11814;44.686;10.842;2024-01-16T13:22:27;11.10;80.60
23291;DHT22;11814;44.686;10.842;2024-01-16T13:24:52;11.30;79.60
23291;DHT22;11814;44.686;10.842;2024-01-16T13:27:18;11.30;79.60
23291;DHT22;11814;44.686;10.842;2024-01-16T13:29:43;11.40;79.60
23291;DHT22;11814;44.686;10.842;2024-01-16T13:32:10;11.50;79.40
23291;DHT22;11814;44.686;10.842;2024-01-16T13:34:36;11.60;78.90
23291;DHT22;11814;44.686;10.842;2024-01-16T13:37:03;11.80;79.00
23291;DHT22;11814;44.686;10.842;2024-01-16T13:39:30;12.00;78.70
23291;DHT22;11814;44.686;10.842;2024-01-16T13:42:01;12.10;78.10
23291;DHT22;11814;44.686;10.842;2024-01-16T13:44:31;12.00;77.50
23291;DHT22;11814;44.686;10.842;2024-01-16T13:46:56;12.00;78.10
23291;DHT22;11814;44.686;10.842;2024-01-16T13:49:22;11.90;77.50
23291;DHT22;11814;44.686;10.842;2024-01-16T13:51:48;11.80;77.80
23291;DHT22;11814;44.686;10.842;2024-01-16T13:54:14;11.60;78.10
23291;DHT22;11814;44.686;10.842;2024-01-16T13:56:41;11.60;78.50
23291;DHT22;11814;44.686;10.842;2024-01-16T13:59:11;11.40;78.30
23291;DHT22;11814;44.686;10.842;2024-01-16T14:01:36;11.20;78.90
23291;DHT22;11814;44.686;10.842;2024-01-16T14:04:02;11.10;79.20
23291;DHT22;11814;44.686;10.842;2024-01-16T14:06:28;10.90;79.50
23291;DHT22;11814;44.686;10.842;2024-01-16T14:08:53;10.80;79.90
23291;DHT22;11814;44.686;10.842;2024-01-16T14:11:19;10.70;80.30
23291;DHT22;11814;44.686;10.842;2024-01-16T14:13:44;10.70;81.40
23291;DHT22;11814;44.686;10.842;2024-01-16T14:16:13;10.80;80.80
23291;DHT22;11814;44.686;10.842;2024-01-16T14:18:42;10.70;81.00
23291;DHT22;11814;44.686;10.842;2024-01-16T14:21:07;10.70;81.20
23291;DHT22;11814;44.686;10.842;2024-01-16T14:23:33;10.70;81.60
23291;DHT22;11814;44.686;10.842;2024-01-16T14:25:58;10.70;81.70
23291;DHT22;11814;44.686;10.842;2024-01-16T14:28:24;10.70;81.80
23291;DHT22;11814;44.686;10.842;2024-01-16T14:30:51;10.70;82.10
23291;DHT22;11814;44.686;10.842;2024-01-16T14:33:17;10.60;82.10
23291;DHT22;11814;44.686;10.842;2024-01-16T14:35:43;10.50;82.30
23291;DHT22;11814;44.686;10.842;2024-01-16T14:38:09;10.40;82.50
23291;DHT22;11814;44.686;10.842;2024-01-16T14:40:34;10.30;83.10
23291;DHT22;11814;44.686;10.842;2024-01-16T14:43:00;10.30;83.40
23291;DHT22;11814;44.686;10.842;2024-01-16T14:45:30;10.20;83.60
23291;DHT22;11814;44.686;10.842;2024-01-16T14:47:56;10.10;83.70
23291;DHT22;11814;44.686;10.842;2024-01-16T14:50:23;9.90;84.00
23291;DHT22;11814;44.686;10.842;2024-01-16T14:52:50;9.80;84.60
23291;DHT22;11814;44.686;10.842;2024-01-16T14:55:16;9.70;85.10
23291;DHT22;11814;44.686;10.842;2024-01-16T14:57:42;9.60;85.60
23291;DHT22;11814;44.686;10.842;2024-01-16T15:00:09;9.60;86.00
23291;DHT22;11814;44.686;10.842;2024-01-16T15:02:43;9.60;86.20
23291;DHT22;11814;44.686;10.842;2024-01-16T15:05:09;9.50;86.70
23291;DHT22;11814;44.686;10.842;2024-01-16T15:07:35;9.50;87.50
23291;DHT22;11814;44.686;10.842;2024-01-16T15:10:06;9.50;86.90
23291;DHT22;11814;44.686;10.842;2024-01-16T15:12:35;9.40;87.10
23291;DHT22;11814;44.686;10.842;2024-01-16T15:15:00;9.30;87.40
23291;DHT22;11814;44.686;10.842;2024-01-16T15:17:29;9.20;87.70
23291;DHT22;11814;44.686;10.842;2024-01-16T15:19:54;9.20;88.10
23291;DHT22;11814;44.686;10.842;2024-01-16T15:22:20;9.20;88.20
23291;DHT22;11814;44.686;10.842;2024-01-16T15:24:46;9.10;88.40
23291;DHT22;11814;44.686;10.842;2024-01-16T15:27:13;9.00;88.60
23291;DHT22;11814;44.686;10.842;2024-01-16T15:29:38;9.00;89.00
23291;DHT22;11814;44.686;10.842;2024-01-16T15:32:04;8.90;89.40
23291;DHT22;11814;44.686;10.842;2024-01-16T15:34:30;8.90;90.00
23291;DHT22;11814;44.686;10.842;2024-01-16T15:36:55;8.90;90.10
23291;DHT22;11814;44.686;10.842;2024-01-16T15:39:23;9.00;90.20
23291;DHT22;11814;44.686;10.842;2024-01-16T15:41:48;9.00;90.30